Denver ARTCC

A member of the VATUSA division of VATSIM
Online Controllers
No online controllers
Airport Weather
KDEN LIFR 280 @ 08 30.12
KASE VFR 200 @ 06 30.26
KCOS VFR 000 @ 00 30.16
KGJT VFR 120 @ 05 30.02
Airport Search

Airport Information

KASE Aspen–Pitkin County Airport

KASE 141253Z 20006KT 10SM FU CLR 11/02 A3026 RMK AO2 SLP120 T01060022


© 2018 Denver ARTCC. All rights reserved. Information contained on this website is intended for simulation purposes only. Do not use for real world operations. We are not affiliated with the FAA or any other government agency. Photographs provided courtesy of Denver International Airport. Developed by Mark Swan.